createdAt,value
2022-08-19T00:00:07.525Z,93.04
2022-08-19T00:00:43.078Z,93.24
2022-08-19T00:01:28.670Z,92.34
2022-08-19T00:01:53.740Z,93.35
2022-08-19T00:02:28.553Z,93.55
2022-08-19T00:03:03.762Z,93.44
2022-08-19T00:03:39.065Z,93.24
2022-08-19T00:04:14.319Z,92.84
2022-08-19T00:04:49.927Z,92.94
2022-08-19T00:05:25.111Z,92.08
2022-08-19T00:06:00.290Z,93.09
2022-08-19T00:06:35.778Z,93.15
2022-08-19T00:07:10.961Z,93.29
2022-08-19T00:07:46.447Z,93.44
2022-08-19T00:08:21.855Z,93.55
2022-08-19T00:08:56.861Z,93.24
2022-08-19T00:09:32.369Z,93.74
2022-08-19T00:10:07.484Z,93.24
2022-08-19T00:10:42.710Z,93.39
2022-08-19T00:11:18.700Z,93.44
2022-08-19T00:11:53.038Z,92.58
2022-08-19T00:12:28.431Z,91.88
2022-08-19T00:13:03.640Z,92.49
2022-08-19T00:13:38.805Z,93.49
2022-08-19T00:14:14.104Z,93.95
2022-08-19T00:14:49.593Z,93.95
2022-08-19T00:15:24.795Z,93.49
2022-08-19T00:15:59.990Z,94.20
2022-08-19T00:16:35.278Z,92.58
2022-08-19T00:17:10.664Z,93.39
2022-08-19T00:17:45.979Z,93.35
2022-08-19T00:18:21.266Z,93.89
2022-08-19T00:18:56.581Z,93.99
2022-08-19T00:19:31.558Z,93.49
2022-08-19T00:20:06.968Z,93.49
2022-08-19T00:20:42.356Z,91.18
2022-08-19T00:21:17.362Z,91.18
2022-08-19T00:21:52.433Z,91.38
2022-08-19T00:22:27.519Z,90.08
2022-08-19T00:23:02.615Z,89.31
2022-08-19T00:23:37.694Z,89.72
2022-08-19T00:24:12.889Z,91.32
2022-08-19T00:24:50.830Z,91.58
2022-08-19T00:25:30.442Z,93.19
2022-08-19T00:25:58.665Z,93.39
2022-08-19T00:26:33.838Z,93.89
2022-08-19T00:27:26.207Z,94.09
2022-08-19T00:27:44.735Z,93.89
2022-08-19T00:28:19.862Z,93.99
2022-08-19T00:28:54.853Z,94.49
2022-08-19T00:29:30.138Z,93.79
2022-08-19T00:30:05.324Z,93.19
2022-08-19T00:30:40.506Z,93.93
2022-08-19T00:31:15.710Z,93.69
2022-08-19T00:31:50.855Z,94.59
2022-08-19T00:32:25.742Z,91.58
2022-08-19T00:33:00.728Z,89.92
2022-08-19T00:33:35.814Z,89.22
2022-08-19T00:34:11.016Z,88.71
2022-08-19T00:34:46.003Z,89.06
2022-08-19T00:35:21.421Z,87.91
2022-08-19T00:35:56.388Z,88.65
2022-08-19T00:36:31.428Z,88.85
2022-08-19T00:37:07.050Z,89.06
2022-08-19T00:37:42.044Z,89.56
2022-08-19T00:38:17.169Z,89.15
2022-08-19T00:38:52.361Z,89.06
2022-08-19T00:39:27.535Z,89.06
2022-08-19T00:40:02.771Z,89.20
2022-08-19T00:40:37.939Z,89.20
2022-08-19T00:41:13.036Z,89.80
2022-08-19T00:41:48.560Z,89.40
2022-08-19T00:42:23.643Z,90.50
2022-08-19T00:42:58.924Z,91.61
2022-08-19T00:43:34.142Z,92.61
2022-08-19T00:44:09.328Z,91.51
2022-08-19T00:44:44.590Z,90.30
2022-08-19T00:45:19.674Z,90.11
2022-08-19T00:45:54.873Z,90.30
2022-08-19T00:46:30.256Z,91.71
2022-08-19T00:47:05.364Z,92.82
2022-08-19T00:47:40.473Z,91.87
2022-08-19T00:48:15.883Z,93.68
2022-08-19T00:48:50.859Z,93.88
2022-08-19T00:49:26.471Z,94.28
2022-08-19T00:50:01.485Z,95.18
2022-08-19T00:50:36.897Z,93.98
2022-08-19T00:51:12.106Z,91.97
2022-08-19T00:51:47.076Z,90.16
2022-08-19T00:52:22.386Z,89.66
2022-08-19T00:52:57.388Z,89.70
2022-08-19T00:53:32.796Z,90.06
2022-08-19T00:54:07.868Z,90.11
2022-08-19T00:54:43.058Z,90.11
2022-08-19T00:55:18.379Z,92.17
2022-08-19T00:55:53.793Z,93.42
2022-08-19T00:56:28.987Z,93.58
2022-08-19T00:57:04.213Z,93.98
2022-08-19T00:57:39.119Z,94.08
2022-08-19T00:58:14.849Z,91.67
2022-08-19T00:58:50.101Z,91.97
2022-08-19T01:00:00.807Z,90.36
2022-08-19T01:00:02.635Z,89.86
2022-08-19T01:00:35.978Z,89.76
2022-08-19T01:01:11.015Z,90.41
2022-08-19T01:01:46.163Z,89.70
2022-08-19T01:02:21.141Z,89.60
2022-08-19T01:02:56.475Z,89.76
2022-08-19T01:03:56.977Z,89.66
2022-08-19T01:04:07.082Z,89.90
2022-08-19T01:04:42.475Z,89.80
2022-08-19T01:05:17.596Z,89.70
2022-08-19T01:05:52.805Z,91.41
2022-08-19T01:06:28.111Z,92.11
2022-08-19T01:07:03.413Z,92.11
2022-08-19T01:07:38.551Z,93.32
2022-08-19T01:08:13.626Z,92.72
2022-08-19T01:08:49.934Z,92.82
2022-08-19T01:09:24.326Z,90.70
2022-08-19T01:09:59.828Z,92.32
2022-08-19T01:10:36.849Z,93.73
2022-08-19T01:11:10.665Z,93.93
2022-08-19T01:11:45.756Z,92.61
2022-08-19T01:12:20.853Z,91.31
2022-08-19T01:12:56.336Z,90.16
2022-08-19T01:13:44.588Z,91.51
2022-08-19T01:14:06.663Z,93.22
2022-08-19T01:14:42.163Z,94.08
2022-08-19T01:15:17.270Z,93.73
2022-08-19T01:15:52.457Z,94.38
2022-08-19T01:16:27.566Z,94.38
2022-08-19T01:17:02.794Z,91.37
2022-08-19T01:17:37.870Z,91.41
2022-08-19T01:18:13.086Z,93.52
2022-08-19T01:18:48.693Z,94.33
2022-08-19T01:19:24.003Z,94.68
2022-08-19T01:19:59.515Z,94.68
2022-08-19T01:20:34.714Z,95.29
2022-08-19T01:21:09.940Z,94.68
2022-08-19T01:21:44.942Z,94.89
2022-08-19T01:22:26.496Z,94.38
2022-08-19T01:22:55.500Z,94.18
2022-08-19T01:23:30.568Z,90.50
2022-08-19T01:24:05.710Z,89.46
2022-08-19T01:24:45.193Z,90.50
2022-08-19T01:25:16.394Z,91.31
2022-08-19T01:25:51.873Z,91.51
2022-08-19T01:26:27.387Z,91.51
2022-08-19T01:27:02.784Z,90.11
2022-08-19T01:27:43.836Z,90.11
2022-08-19T01:28:13.180Z,90.91
2022-08-19T01:28:48.363Z,91.41
2022-08-19T01:29:23.690Z,91.51
2022-08-19T01:29:58.995Z,92.52
2022-08-19T01:30:34.277Z,92.72
2022-08-19T01:31:09.193Z,93.12
2022-08-19T01:31:44.503Z,92.41
2022-08-19T01:32:32.312Z,91.41
2022-08-19T01:32:55.022Z,91.71
2022-08-19T01:33:30.435Z,91.61
2022-08-19T01:34:05.356Z,93.73
2022-08-19T01:34:40.865Z,94.43
2022-08-19T01:35:16.171Z,94.53
2022-08-19T01:35:51.163Z,94.89
2022-08-19T01:36:26.369Z,95.23
2022-08-19T01:37:01.572Z,94.43
2022-08-19T01:37:37.074Z,94.53
2022-08-19T01:38:12.449Z,94.13
2022-08-19T01:38:47.581Z,93.12
2022-08-19T01:39:22.978Z,94.43
2022-08-19T01:39:58.138Z,94.73
2022-08-19T01:40:33.422Z,94.83
2022-08-19T01:41:10.889Z,93.98
2022-08-19T01:41:43.977Z,94.23
2022-08-19T01:42:19.480Z,94.63
2022-08-19T01:42:54.964Z,94.68
2022-08-19T01:43:30.009Z,94.38
2022-08-19T01:44:17.654Z,92.02
2022-08-19T01:44:40.490Z,91.57
2022-08-19T01:45:15.666Z,92.22
2022-08-19T01:45:50.984Z,93.12
2022-08-19T01:46:26.396Z,93.82
2022-08-19T01:47:01.705Z,91.41
2022-08-19T01:47:36.815Z,92.02
2022-08-19T01:48:12.139Z,91.91
2022-08-19T01:48:47.337Z,93.32
2022-08-19T01:49:23.162Z,94.02
2022-08-19T01:49:58.357Z,93.62
2022-08-19T01:50:33.690Z,92.11
2022-08-19T01:51:08.905Z,91.41
2022-08-19T01:51:44.422Z,90.91
2022-08-19T01:52:19.617Z,91.55
2022-08-19T01:53:02.370Z,93.32
2022-08-19T01:53:30.598Z,93.52
2022-08-19T01:54:05.076Z,94.43
2022-08-19T01:54:40.098Z,94.53
2022-08-19T01:55:15.390Z,95.03
2022-08-19T01:55:50.612Z,95.43
2022-08-19T01:56:25.799Z,94.93
2022-08-19T01:57:01.000Z,95.33
2022-08-19T01:57:36.206Z,95.29
2022-08-19T01:58:11.412Z,94.93
2022-08-19T01:58:46.717Z,92.32
2022-08-19T01:59:21.998Z,92.11
2022-08-19T01:59:57.114Z,94.23
2022-08-19T02:00:32.297Z,94.23
2022-08-19T02:01:07.945Z,94.73
2022-08-19T02:01:43.064Z,94.83
2022-08-19T02:02:18.239Z,95.13
2022-08-19T02:02:53.608Z,94.43
2022-08-19T02:03:28.530Z,93.02
2022-08-19T02:04:03.845Z,92.02
2022-08-19T02:04:39.156Z,94.23
2022-08-19T02:05:14.370Z,92.61
2022-08-19T02:05:49.523Z,94.13
2022-08-19T02:06:27.081Z,95.03
2022-08-19T02:06:59.961Z,92.61
2022-08-19T02:07:35.471Z,91.71
2022-08-19T02:08:10.668Z,91.46
2022-08-19T02:08:45.769Z,90.34
2022-08-19T02:09:21.174Z,91.66
2022-08-19T02:09:56.351Z,91.46
2022-08-19T02:10:31.332Z,92.46
2022-08-19T02:11:06.354Z,92.76
2022-08-19T02:11:41.855Z,93.46
2022-08-19T02:12:17.045Z,93.66
2022-08-19T02:12:52.549Z,91.55
2022-08-19T02:13:27.645Z,92.36
2022-08-19T02:14:02.969Z,91.55
2022-08-19T02:14:38.387Z,91.35
2022-08-19T02:15:13.879Z,92.06
2022-08-19T02:15:49.199Z,92.06
2022-08-19T02:16:24.396Z,92.36
2022-08-19T02:16:59.598Z,92.16
2022-08-19T02:17:34.703Z,93.97
2022-08-19T02:18:10.178Z,94.47
2022-08-19T02:18:45.485Z,94.67
2022-08-19T02:19:20.760Z,95.07
2022-08-19T02:19:56.157Z,95.18
2022-08-19T02:20:31.472Z,95.18
2022-08-19T02:21:06.515Z,95.48
2022-08-19T02:21:41.544Z,95.43
2022-08-19T02:22:16.746Z,95.64
2022-08-19T02:22:52.065Z,95.64
2022-08-19T02:23:26.997Z,95.78
2022-08-19T02:24:02.168Z,95.33
2022-08-19T02:24:37.296Z,95.73
2022-08-19T02:25:12.410Z,95.64
2022-08-19T02:25:47.613Z,96.04
2022-08-19T02:26:23.021Z,95.23
2022-08-19T02:26:58.441Z,93.46
2022-08-19T02:27:33.739Z,93.57
2022-08-19T02:28:09.118Z,93.82
2022-08-19T02:28:44.508Z,95.28
2022-08-19T02:29:19.891Z,95.07
2022-08-19T02:29:55.123Z,94.98
2022-08-19T02:30:30.428Z,94.98
2022-08-19T02:31:05.639Z,95.43
2022-08-19T02:31:40.875Z,95.43
2022-08-19T02:32:16.362Z,95.23
2022-08-19T02:32:51.574Z,95.23
2022-08-19T02:33:26.867Z,95.03
2022-08-19T02:34:02.066Z,95.23
2022-08-19T02:34:37.452Z,95.94
2022-08-19T02:35:12.888Z,95.13
2022-08-19T02:35:47.806Z,95.43
2022-08-19T02:36:23.001Z,95.64
2022-08-19T02:37:01.845Z,95.53
2022-08-19T02:37:35.037Z,95.94
2022-08-19T02:38:08.834Z,95.64
2022-08-19T02:38:54.235Z,95.73
2022-08-19T02:39:19.716Z,95.43
2022-08-19T02:39:54.978Z,95.03
2022-08-19T02:40:30.331Z,95.13
2022-08-19T02:41:05.667Z,95.53
2022-08-19T02:41:40.956Z,95.13
2022-08-19T02:42:15.930Z,95.33
2022-08-19T02:42:51.031Z,95.43
2022-08-19T02:43:26.121Z,95.68
2022-08-19T02:44:22.907Z,95.73
2022-08-19T02:44:36.941Z,95.58
2022-08-19T02:45:12.130Z,95.64
2022-08-19T02:45:47.634Z,95.18
2022-08-19T02:46:22.679Z,95.43
2022-08-19T02:46:57.690Z,95.64
2022-08-19T02:47:33.100Z,95.68
2022-08-19T02:48:17.925Z,95.64
2022-08-19T02:48:43.789Z,95.78
2022-08-19T02:49:19.309Z,96.04
2022-08-19T02:49:54.512Z,96.24
2022-08-19T02:50:29.639Z,96.19
2022-08-19T02:51:04.990Z,95.88
2022-08-19T02:51:40.172Z,95.78
2022-08-19T02:52:15.608Z,96.19
2022-08-19T02:52:50.904Z,96.28
2022-08-19T02:53:26.204Z,96.24
2022-08-19T02:54:01.596Z,95.68
2022-08-19T02:54:36.818Z,96.19
2022-08-19T02:55:12.415Z,96.19
2022-08-19T02:55:47.920Z,96.19
2022-08-19T02:56:23.241Z,96.48
2022-08-19T02:56:58.419Z,95.98
2022-08-19T02:57:33.583Z,96.19
2022-08-19T02:58:08.881Z,95.68
2022-08-19T02:58:44.345Z,96.89
2022-08-19T02:59:21.132Z,96.59
2022-08-19T02:59:54.758Z,96.19
2022-08-19T03:00:30.281Z,96.19
2022-08-19T03:01:05.685Z,96.59
2022-08-19T03:01:40.919Z,95.98
2022-08-19T03:02:15.999Z,96.48
2022-08-19T03:02:51.285Z,96.39
2022-08-19T03:03:26.693Z,96.08
2022-08-19T03:04:02.085Z,95.98
2022-08-19T03:04:37.382Z,95.78
2022-08-19T03:05:12.876Z,96.28
2022-08-19T03:05:56.167Z,96.19
2022-08-19T03:06:23.323Z,96.19
2022-08-19T03:07:02.196Z,96.19
2022-08-19T03:07:33.933Z,95.88
2022-08-19T03:08:09.134Z,95.38
2022-08-19T03:08:44.727Z,95.07
2022-08-19T03:09:19.721Z,95.88
2022-08-19T03:09:55.216Z,95.68
2022-08-19T03:10:30.565Z,95.78
2022-08-19T03:11:05.886Z,95.68
2022-08-19T03:11:41.277Z,95.68
2022-08-19T03:12:16.385Z,96.39
2022-08-19T03:12:51.607Z,95.48
2022-08-19T03:13:26.981Z,95.53
2022-08-19T03:14:02.192Z,95.53
2022-08-19T03:14:37.300Z,95.68
2022-08-19T03:15:12.659Z,96.08
2022-08-19T03:15:47.777Z,95.88
2022-08-19T03:16:22.905Z,95.88
2022-08-19T03:16:58.106Z,96.39
2022-08-19T03:17:33.419Z,95.78
2022-08-19T03:18:08.748Z,95.68
2022-08-19T03:18:44.066Z,96.19
2022-08-19T03:19:19.194Z,96.08
2022-08-19T03:19:54.605Z,96.98
2022-08-19T03:20:29.699Z,96.19
2022-08-19T03:21:05.029Z,96.98
2022-08-19T03:21:40.270Z,96.28
2022-08-19T03:22:15.584Z,95.98
2022-08-19T03:22:51.075Z,96.08
2022-08-19T03:23:26.361Z,96.59
2022-08-19T03:24:01.848Z,95.88
2022-08-19T03:24:37.051Z,96.59
2022-08-19T03:25:12.237Z,96.59
2022-08-19T03:25:47.420Z,96.48
2022-08-19T03:26:22.849Z,96.78
2022-08-19T03:26:58.260Z,95.73
2022-08-19T03:27:34.491Z,96.19
2022-08-19T03:28:08.843Z,96.28
2022-08-19T03:28:51.279Z,95.88
2022-08-19T03:29:30.814Z,95.98
2022-08-19T03:29:54.800Z,96.48
2022-08-19T03:30:30.129Z,95.78
2022-08-19T03:31:05.044Z,95.93
2022-08-19T03:31:43.631Z,95.78
2022-08-19T03:32:32.275Z,95.78
2022-08-19T03:32:51.393Z,96.98
2022-08-19T03:33:26.490Z,97.19
2022-08-19T03:34:01.380Z,96.83
2022-08-19T03:34:36.379Z,96.19
2022-08-19T03:35:11.636Z,96.59
2022-08-19T03:35:46.750Z,96.89
2022-08-19T03:36:21.859Z,96.93
2022-08-19T03:36:57.156Z,96.43
2022-08-19T03:37:32.634Z,96.48
2022-08-19T03:38:07.629Z,95.83
2022-08-19T03:38:42.942Z,96.23
2022-08-19T03:39:18.245Z,96.23
2022-08-19T03:39:53.510Z,96.13
2022-08-19T03:40:28.867Z,95.73
2022-08-19T03:41:04.283Z,94.82
2022-08-19T03:41:45.722Z,94.92
2022-08-19T03:42:38.082Z,96.13
2022-08-19T03:42:50.026Z,95.93
2022-08-19T03:43:25.232Z,96.93
2022-08-19T03:44:00.528Z,96.83
2022-08-19T03:44:35.676Z,96.83
2022-08-19T03:45:11.189Z,96.43
2022-08-19T03:45:46.301Z,95.02
2022-08-19T03:46:21.606Z,95.73
2022-08-19T03:46:56.798Z,96.13
2022-08-19T03:47:32.210Z,95.83
2022-08-19T03:48:07.301Z,95.62
2022-08-19T03:48:42.584Z,96.13
2022-08-19T03:49:18.506Z,96.03
2022-08-19T03:49:53.384Z,96.03
2022-08-19T03:50:28.478Z,96.93
2022-08-19T03:51:03.995Z,95.83
2022-08-19T03:51:39.224Z,96.23
2022-08-19T03:52:14.629Z,95.83
2022-08-19T03:52:50.351Z,96.73
2022-08-19T03:53:25.456Z,97.03
2022-08-19T03:54:00.762Z,95.93
2022-08-19T03:54:36.378Z,96.33
2022-08-19T03:55:11.685Z,97.13
2022-08-19T03:55:46.892Z,95.93
2022-08-19T03:56:22.021Z,96.03
2022-08-19T03:56:57.334Z,96.03
2022-08-19T03:57:32.547Z,95.62
2022-08-19T03:58:07.831Z,95.93
2022-08-19T03:58:43.349Z,96.93
2022-08-19T03:59:18.542Z,96.53
2022-08-19T03:59:53.734Z,96.43
2022-08-19T04:00:29.233Z,95.83
2022-08-19T04:01:04.590Z,96.23
2022-08-19T04:01:39.982Z,96.53
2022-08-19T04:02:15.361Z,96.13
2022-08-19T04:02:58.055Z,96.03
2022-08-19T04:03:26.185Z,96.73
2022-08-19T04:04:01.588Z,97.03
2022-08-19T04:04:36.589Z,96.93
2022-08-19T04:05:11.885Z,97.03
2022-08-19T04:05:46.986Z,97.03
2022-08-19T04:06:22.424Z,95.83
2022-08-19T04:06:57.641Z,96.13
2022-08-19T04:07:33.183Z,96.23
2022-08-19T04:08:12.014Z,96.03
2022-08-19T04:08:43.799Z,96.03
2022-08-19T04:09:19.204Z,95.93
2022-08-19T04:09:54.420Z,96.03
2022-08-19T04:10:29.819Z,96.63
2022-08-19T04:11:05.132Z,95.97
2022-08-19T04:11:43.970Z,95.73
2022-08-19T04:12:16.024Z,94.46
2022-08-19T04:12:51.195Z,95.42
2022-08-19T04:13:26.540Z,96.08
2022-08-19T04:14:01.720Z,96.37
2022-08-19T04:14:37.229Z,96.83
2022-08-19T04:15:12.314Z,95.93
2022-08-19T04:15:47.444Z,96.78
2022-08-19T04:16:35.107Z,96.33
2022-08-19T04:17:05.001Z,95.83
2022-08-19T04:17:40.496Z,96.37
2022-08-19T04:18:15.889Z,94.36
2022-08-19T04:18:50.888Z,94.76
2022-08-19T04:19:25.984Z,95.77
2022-08-19T04:20:00.958Z,95.42
2022-08-19T04:20:36.058Z,94.36
2022-08-19T04:21:11.157Z,93.76
2022-08-19T04:21:46.553Z,95.57
2022-08-19T04:22:21.837Z,94.76
2022-08-19T04:22:57.055Z,94.56
2022-08-19T04:23:32.241Z,94.87
2022-08-19T04:24:07.420Z,94.67
2022-08-19T04:24:42.815Z,95.61
2022-08-19T04:25:18.312Z,95.77
2022-08-19T04:25:53.628Z,95.87
2022-08-19T04:26:29.237Z,96.08
2022-08-19T04:27:04.626Z,96.37
2022-08-19T04:27:39.439Z,95.87
2022-08-19T04:28:14.542Z,96.53
2022-08-19T04:28:49.851Z,96.63
2022-08-19T04:29:25.263Z,96.68
2022-08-19T04:30:00.245Z,96.08
2022-08-19T04:30:35.582Z,95.07
2022-08-19T04:31:11.107Z,95.77
2022-08-19T04:31:46.607Z,95.97
2022-08-19T04:32:21.931Z,96.17
2022-08-19T04:32:57.219Z,97.03
2022-08-19T04:33:32.131Z,96.63
2022-08-19T04:34:07.343Z,97.13
2022-08-19T04:35:01.305Z,96.88
2022-08-19T04:35:19.410Z,96.83
2022-08-19T04:35:53.391Z,97.28
2022-08-19T04:36:28.465Z,96.83
2022-08-19T04:37:03.651Z,96.78
2022-08-19T04:37:38.849Z,96.63
2022-08-19T04:38:14.150Z,95.93
2022-08-19T04:38:49.039Z,96.03
2022-08-19T04:39:24.520Z,95.83
2022-08-19T04:40:02.334Z,96.13
2022-08-19T04:40:35.125Z,96.28
2022-08-19T04:41:10.426Z,95.83
2022-08-19T04:41:45.721Z,96.28
2022-08-19T04:42:21.225Z,95.93
2022-08-19T04:42:56.609Z,95.47
2022-08-19T04:43:31.907Z,94.56
2022-08-19T04:44:06.991Z,94.06
2022-08-19T04:44:46.095Z,95.37
2022-08-19T04:45:17.631Z,94.96
2022-08-19T04:45:52.994Z,95.87
2022-08-19T04:46:39.364Z,95.97
2022-08-19T04:47:03.674Z,95.87
2022-08-19T04:47:47.699Z,95.62
2022-08-19T04:48:26.660Z,95.07
2022-08-19T04:48:49.576Z,95.27
2022-08-19T04:49:24.540Z,94.21
2022-08-19T04:49:59.697Z,94.67
2022-08-19T04:50:35.208Z,93.66
2022-08-19T04:51:10.701Z,93.26
2022-08-19T04:51:45.701Z,93.46
2022-08-19T04:52:21.086Z,94.46
2022-08-19T04:52:56.038Z,93.46
2022-08-19T04:53:35.528Z,94.16
2022-08-19T04:54:06.518Z,93.66
2022-08-19T04:54:41.816Z,93.35
2022-08-19T04:55:16.908Z,92.75
2022-08-19T04:55:52.115Z,92.55
2022-08-19T04:56:27.421Z,91.94
2022-08-19T04:57:02.609Z,92.75
2022-08-19T04:57:38.091Z,93.46
2022-08-19T04:58:13.180Z,93.15
2022-08-19T04:58:48.096Z,93.35
2022-08-19T04:59:23.280Z,93.86
2022-08-19T04:59:58.621Z,93.55
2022-08-19T05:00:35.497Z,92.85
2022-08-19T05:01:09.438Z,92.75
2022-08-19T05:01:44.728Z,92.85
2022-08-19T05:02:19.910Z,93.60
2022-08-19T05:02:55.112Z,92.85
2022-08-19T05:03:30.677Z,92.75
2022-08-19T05:04:05.709Z,92.90
2022-08-19T05:04:41.303Z,92.85
2022-08-19T05:05:16.802Z,93.76
2022-08-19T05:05:52.107Z,93.76
2022-08-19T05:06:27.240Z,93.76
2022-08-19T05:07:02.572Z,93.80
2022-08-19T05:07:37.745Z,93.60
2022-08-19T05:08:13.128Z,93.66
2022-08-19T05:08:48.550Z,94.26
2022-08-19T05:09:23.839Z,94.76
2022-08-19T05:09:59.258Z,94.76
2022-08-19T05:10:34.269Z,94.76
2022-08-19T05:11:09.557Z,94.06
2022-08-19T05:11:44.757Z,93.35
2022-08-19T05:12:19.944Z,92.75
2022-08-19T05:12:55.068Z,93.26
2022-08-19T05:13:30.203Z,93.66
2022-08-19T05:14:05.385Z,93.66
2022-08-19T05:14:40.475Z,93.35
2022-08-19T05:15:15.861Z,93.46
2022-08-19T05:15:51.081Z,94.06
2022-08-19T05:16:26.055Z,94.26
2022-08-19T05:17:25.581Z,94.36
2022-08-19T05:17:38.730Z,94.26
2022-08-19T05:18:11.655Z,94.06
2022-08-19T05:18:47.137Z,94.67
2022-08-19T05:19:22.224Z,94.16
2022-08-19T05:19:57.329Z,93.46
2022-08-19T05:20:32.532Z,93.26
2022-08-19T05:21:07.745Z,92.35
2022-08-19T05:21:43.034Z,92.85
2022-08-19T05:22:18.110Z,92.45
2022-08-19T05:22:53.724Z,92.50
2022-08-19T05:23:28.767Z,92.75
2022-08-19T05:24:04.357Z,92.45
2022-08-19T05:24:56.356Z,92.95
2022-08-19T05:25:14.934Z,93.26
2022-08-19T05:25:50.148Z,93.21
2022-08-19T05:26:25.332Z,94.21
2022-08-19T05:27:00.432Z,94.12
2022-08-19T05:27:35.522Z,94.01
2022-08-19T05:28:10.722Z,94.82
2022-08-19T05:28:45.940Z,94.42
2022-08-19T05:29:21.224Z,94.72
2022-08-19T05:29:56.531Z,94.52
2022-08-19T05:30:46.361Z,93.51
2022-08-19T05:31:06.960Z,94.82
2022-08-19T05:31:42.274Z,94.47
2022-08-19T05:32:17.544Z,94.57
2022-08-19T05:32:54.012Z,94.67
2022-08-19T05:33:28.235Z,94.57
2022-08-19T05:34:03.478Z,94.47
2022-08-19T05:34:38.691Z,94.07
2022-08-19T05:35:13.678Z,94.47
2022-08-19T05:35:49.421Z,94.37
2022-08-19T05:36:24.698Z,94.27
2022-08-19T05:36:59.924Z,94.57
2022-08-19T05:37:35.115Z,94.47
2022-08-19T05:38:10.311Z,94.57
2022-08-19T05:38:45.505Z,94.47
2022-08-19T05:39:20.982Z,94.47
2022-08-19T05:39:56.182Z,94.78
2022-08-19T05:40:31.258Z,93.37
2022-08-19T05:41:06.470Z,93.16
2022-08-19T05:41:41.858Z,93.27
2022-08-19T05:42:17.059Z,92.86
2022-08-19T05:42:55.177Z,92.41
2022-08-19T05:43:27.448Z,92.06
2022-08-19T05:44:02.862Z,92.11
2022-08-19T05:44:38.219Z,91.41
2022-08-19T05:45:13.733Z,92.11
2022-08-19T05:45:49.048Z,91.11
2022-08-19T05:46:27.804Z,91.11
2022-08-19T05:46:59.643Z,91.41
2022-08-19T05:47:34.634Z,91.51
2022-08-19T05:48:09.836Z,91.61
2022-08-19T05:48:45.226Z,91.82
2022-08-19T05:49:20.536Z,91.71
2022-08-19T05:49:55.932Z,91.37
2022-08-19T05:50:31.033Z,92.22
2022-08-19T05:51:06.566Z,91.27
2022-08-19T05:51:41.961Z,91.47
2022-08-19T05:52:18.878Z,91.67
2022-08-19T05:52:52.231Z,91.27
2022-08-19T05:53:27.300Z,90.46
2022-08-19T05:54:02.483Z,90.16
2022-08-19T05:54:37.683Z,90.16
2022-08-19T05:55:12.884Z,90.42
2022-08-19T05:55:48.033Z,90.46
2022-08-19T05:56:23.230Z,89.96
2022-08-19T05:56:58.546Z,89.82
2022-08-19T05:57:33.638Z,89.82
2022-08-19T05:58:08.934Z,89.72
2022-08-19T05:58:43.944Z,89.01
2022-08-19T05:59:19.443Z,89.01
2022-08-19T05:59:58.237Z,89.51
2022-08-19T06:00:29.977Z,90.02
2022-08-19T06:01:05.290Z,90.37
2022-08-19T06:01:40.494Z,89.98
2022-08-19T06:02:15.778Z,89.98
2022-08-19T06:02:51.103Z,90.17
2022-08-19T06:03:26.198Z,90.37
2022-08-19T06:04:01.509Z,89.87
2022-08-19T06:04:36.686Z,89.98
2022-08-19T06:05:11.792Z,90.17
2022-08-19T06:05:51.781Z,90.23
2022-08-19T06:06:21.993Z,90.13
2022-08-19T06:06:57.102Z,89.63
2022-08-19T06:07:32.507Z,89.63
2022-08-19T06:08:07.701Z,88.63
2022-08-19T06:08:42.905Z,88.02
2022-08-19T06:09:18.120Z,88.39
2022-08-19T06:10:00.019Z,88.29
2022-08-19T06:10:28.823Z,88.29
2022-08-19T06:11:04.129Z,88.48
2022-08-19T06:11:39.623Z,89.09
2022-08-19T06:12:14.812Z,88.79
2022-08-19T06:12:50.337Z,89.09
2022-08-19T06:13:25.634Z,88.68
2022-08-19T06:14:00.850Z,88.68
2022-08-19T06:14:40.203Z,88.18
2022-08-19T06:15:10.939Z,88.18
2022-08-19T06:15:46.129Z,88.68
2022-08-19T06:16:21.528Z,88.59
2022-08-19T06:16:56.976Z,88.64
2022-08-19T06:17:32.307Z,89.25
2022-08-19T06:18:07.254Z,88.34
2022-08-19T06:18:42.475Z,88.59
2022-08-19T06:19:17.887Z,88.64
2022-08-19T06:19:53.008Z,88.14
2022-08-19T06:20:52.559Z,88.14
2022-08-19T06:21:03.659Z,88.54
2022-08-19T06:21:39.139Z,87.94
2022-08-19T06:22:14.564Z,88.14
2022-08-19T06:22:49.685Z,88.95
2022-08-19T06:23:24.973Z,88.54
2022-08-19T06:24:00.295Z,88.75
2022-08-19T06:24:35.598Z,88.75
2022-08-19T06:25:10.793Z,87.94
2022-08-19T06:25:46.112Z,88.34
2022-08-19T06:26:21.613Z,87.20
2022-08-19T06:26:59.299Z,88.44
2022-08-19T06:27:31.931Z,87.84
2022-08-19T06:28:15.410Z,88.20
2022-08-19T06:28:42.440Z,88.10
2022-08-19T06:29:24.097Z,88.30
2022-08-19T06:29:52.986Z,88.00
2022-08-19T06:30:28.396Z,88.10
2022-08-19T06:31:03.730Z,88.26
2022-08-19T06:31:38.920Z,86.46
2022-08-19T06:32:14.017Z,86.85
2022-08-19T06:32:49.442Z,87.46
2022-08-19T06:33:24.448Z,87.46
2022-08-19T06:33:59.550Z,85.66
2022-08-19T06:34:35.048Z,85.35
2022-08-19T06:35:10.447Z,85.46
2022-08-19T22:01:18.598Z,79.30
2022-08-19T22:02:05.644Z,78.67
2022-08-19T22:02:29.068Z,78.90
2022-08-19T22:03:04.148Z,79.60
2022-08-19T22:03:39.374Z,79.46
2022-08-19T22:04:14.546Z,78.77
2022-08-19T22:04:49.552Z,80.26
2022-08-19T22:05:25.053Z,79.00
2022-08-19T22:06:00.380Z,78.50
2022-08-19T22:06:35.677Z,78.20
2022-08-19T22:07:11.370Z,80.00
2022-08-19T22:07:46.654Z,79.10
2022-08-19T22:08:21.959Z,77.40
2022-08-19T22:08:57.150Z,78.41
2022-08-19T22:09:32.362Z,78.60
2022-08-19T22:10:07.450Z,78.41
2022-08-19T22:10:42.746Z,78.20
2022-08-19T22:11:18.071Z,78.80
2022-08-19T22:11:53.186Z,80.20
2022-08-19T22:12:28.509Z,80.10
2022-08-19T22:13:04.012Z,81.00
2022-08-19T22:13:46.161Z,81.36
2022-08-19T22:14:21.628Z,77.21
2022-08-19T22:14:56.717Z,77.91
2022-08-19T22:15:31.911Z,79.30
2022-08-19T22:16:06.999Z,79.30
2022-08-19T22:16:42.434Z,80.50
2022-08-19T22:17:17.932Z,80.50
2022-08-19T22:17:53.567Z,80.70
2022-08-19T22:18:28.952Z,80.80
2022-08-19T22:19:04.366Z,78.20
2022-08-19T22:19:39.665Z,78.50
2022-08-19T22:20:14.964Z,79.50
2022-08-19T22:20:50.068Z,79.50
2022-08-19T22:21:40.337Z,78.80
2022-08-19T22:22:00.990Z,79.00
2022-08-19T22:22:36.175Z,79.40
2022-08-19T22:23:11.388Z,80.20
2022-08-19T22:23:46.699Z,79.50
2022-08-19T22:24:21.897Z,79.30
2022-08-19T22:24:57.231Z,78.60
2022-08-19T22:25:32.626Z,78.90
2022-08-19T22:26:08.333Z,78.20
2022-08-19T22:26:43.772Z,77.91
2022-08-19T22:27:19.060Z,78.90
2022-08-19T22:27:54.125Z,80.40
2022-08-19T22:28:29.668Z,80.70
2022-08-19T22:29:04.859Z,81.00
2022-08-19T22:29:40.264Z,81.20
2022-08-19T22:30:15.377Z,81.49
2022-08-19T22:30:51.183Z,81.49
2022-08-19T22:31:25.622Z,81.99
2022-08-19T22:32:00.489Z,80.20
2022-08-19T22:32:35.488Z,79.70
2022-08-19T22:33:10.758Z,78.90
2022-08-19T22:33:45.881Z,79.70
2022-08-19T22:34:21.078Z,78.30
2022-08-19T22:34:56.279Z,79.20
2022-08-19T22:35:31.402Z,80.10
2022-08-19T22:36:06.678Z,79.20
2022-08-19T22:36:41.676Z,80.00
2022-08-19T22:37:16.906Z,79.70
2022-08-19T22:37:52.181Z,80.60
2022-08-19T22:38:27.422Z,81.20
2022-08-19T22:39:02.627Z,81.10
2022-08-19T22:39:37.858Z,80.20
2022-08-19T22:40:13.251Z,79.90
2022-08-19T22:40:48.137Z,81.90
2022-08-19T22:41:23.653Z,81.30
2022-08-19T22:41:58.908Z,79.24
2022-08-19T22:42:34.307Z,79.80
2022-08-19T22:43:09.894Z,80.20
2022-08-19T22:43:44.995Z,79.30
2022-08-19T22:44:20.478Z,82.29
2022-08-19T22:44:55.487Z,80.80
2022-08-19T22:45:31.292Z,80.24
2022-08-19T22:46:16.970Z,81.99
2022-08-19T22:46:41.844Z,81.49
2022-08-19T22:47:17.129Z,82.29
2022-08-19T22:47:52.279Z,81.49
2022-08-19T22:48:27.398Z,80.70
2022-08-19T22:49:02.617Z,81.40
2022-08-19T22:49:37.899Z,81.20
2022-08-19T22:50:13.743Z,81.40
2022-08-19T22:50:48.088Z,82.39
2022-08-19T22:51:23.203Z,81.40
2022-08-19T22:51:58.489Z,81.04
2022-08-19T22:52:33.819Z,82.50
2022-08-19T22:53:09.104Z,82.39
2022-08-19T22:53:44.522Z,82.59
2022-08-19T22:54:20.107Z,81.10
2022-08-19T22:54:55.532Z,82.39
2022-08-19T22:55:30.649Z,81.70
2022-08-19T22:56:05.878Z,80.40
2022-08-19T22:56:41.283Z,80.80
2022-08-19T22:57:16.579Z,82.50
2022-08-19T22:57:52.019Z,80.40
2022-08-19T22:58:28.283Z,81.40
2022-08-19T22:59:02.575Z,81.60
2022-08-19T22:59:37.971Z,81.10